createdAt,value
2023-05-17T00:00:01.263Z,11.00
2023-05-17T00:02:29.178Z,11.00
2023-05-17T00:04:58.733Z,10.90
2023-05-17T00:07:26.701Z,10.90
2023-05-17T00:09:54.997Z,10.80
2023-05-17T00:12:23.018Z,10.80
2023-05-17T00:14:50.995Z,10.70
2023-05-17T00:17:19.309Z,10.70
2023-05-17T00:19:47.602Z,10.60
2023-05-17T00:22:17.017Z,10.60
2023-05-17T00:24:44.973Z,10.60
2023-05-17T00:27:12.862Z,10.50
2023-05-17T00:29:41.042Z,10.50
2023-05-17T00:32:09.020Z,10.50
2023-05-17T00:34:37.135Z,10.40
2023-05-17T00:37:05.462Z,10.40
2023-05-17T00:39:34.957Z,10.30
2023-05-17T00:42:02.843Z,10.30
2023-05-17T00:44:30.781Z,10.20
2023-05-17T00:46:59.977Z,10.20
2023-05-17T00:49:28.441Z,10.10
2023-05-17T00:51:57.073Z,10.10
2023-05-17T00:54:25.731Z,10.00
2023-05-17T00:56:57.212Z,10.00
2023-05-17T00:59:26.994Z,10.00
2023-05-17T01:01:55.810Z,10.00
2023-05-17T01:04:23.769Z,9.90
2023-05-17T01:06:51.856Z,9.90
2023-05-17T01:09:19.974Z,9.80
2023-05-17T01:11:58.207Z,9.80
2023-05-17T01:14:37.780Z,9.70
2023-05-17T01:17:08.258Z,9.70
2023-05-17T01:19:54.397Z,9.70
2023-05-17T01:22:34.064Z,9.60
2023-05-17T01:25:13.052Z,9.60
2023-05-17T01:27:46.325Z,9.50
2023-05-17T01:30:18.055Z,9.50
2023-05-17T01:32:47.343Z,9.50
2023-05-17T01:35:16.949Z,9.50
2023-05-17T01:37:45.230Z,9.40
2023-05-17T01:40:13.484Z,9.40
2023-05-17T01:42:44.865Z,9.40
2023-05-17T01:45:19.352Z,9.30
2023-05-17T01:47:54.687Z,9.30
2023-05-17T01:50:27.896Z,9.30
2023-05-17T01:53:03.273Z,9.20
2023-05-17T01:55:41.959Z,9.20
2023-05-17T01:58:13.850Z,9.20
2023-05-17T02:00:44.644Z,9.10
2023-05-17T02:03:15.656Z,9.10
2023-05-17T02:05:43.635Z,9.10
2023-05-17T02:08:11.619Z,9.00
2023-05-17T02:10:39.899Z,9.00
2023-05-17T02:13:08.018Z,9.00
2023-05-17T02:15:37.268Z,9.00
2023-05-17T02:18:07.117Z,8.90
2023-05-17T02:20:35.236Z,8.90
2023-05-17T02:23:03.142Z,8.90
2023-05-17T02:25:31.449Z,8.90
2023-05-17T02:28:00.594Z,8.90
2023-05-17T02:30:29.030Z,8.90
2023-05-17T02:32:59.350Z,8.90
2023-05-17T02:35:27.847Z,8.90
2023-05-17T02:37:56.033Z,8.90
2023-05-17T02:40:24.325Z,9.00
2023-05-17T02:42:52.251Z,8.90
2023-05-17T02:45:20.511Z,8.90
2023-05-17T02:47:48.404Z,8.90
2023-05-17T02:50:17.925Z,8.90
2023-05-17T02:52:45.947Z,8.90
2023-05-17T02:55:14.190Z,8.90
2023-05-17T02:57:42.096Z,8.90
2023-05-17T03:00:11.184Z,8.90
2023-05-17T03:02:39.186Z,8.90
2023-05-17T03:05:08.543Z,8.90
2023-05-17T03:07:40.266Z,8.90
2023-05-17T03:10:08.934Z,8.80
2023-05-17T03:12:41.451Z,8.90
2023-05-17T03:15:10.295Z,8.90
2023-05-17T03:17:38.628Z,8.90
2023-05-17T03:20:08.822Z,8.90
2023-05-17T03:22:39.032Z,8.90
2023-05-17T03:25:07.697Z,8.90
2023-05-17T03:27:35.799Z,8.90
2023-05-17T03:30:04.285Z,8.90
2023-05-17T03:32:33.825Z,9.00
2023-05-17T03:35:01.795Z,9.00
2023-05-17T03:37:30.018Z,9.00
2023-05-17T03:39:59.244Z,9.00
2023-05-17T03:42:27.916Z,9.00
2023-05-17T03:44:56.235Z,9.00
2023-05-17T03:47:24.781Z,9.00
2023-05-17T03:49:52.867Z,9.00
2023-05-17T03:52:21.308Z,8.90
2023-05-17T03:54:49.969Z,8.90
2023-05-17T03:57:19.717Z,8.80
2023-05-17T03:59:47.782Z,8.80
2023-05-17T04:02:18.415Z,8.80
2023-05-17T04:04:50.548Z,8.70
2023-05-17T04:07:19.560Z,8.60
2023-05-17T04:09:48.057Z,8.60
2023-05-17T04:12:16.332Z,8.60
2023-05-17T04:14:46.389Z,8.60
2023-05-17T04:17:16.320Z,8.60
2023-05-17T04:19:46.432Z,8.60
2023-05-17T04:22:14.949Z,8.70
2023-05-17T04:24:43.644Z,8.80
2023-05-17T04:27:11.623Z,8.80
2023-05-17T04:29:41.020Z,8.90
2023-05-17T04:32:10.914Z,8.90
2023-05-17T04:34:39.682Z,9.00
2023-05-17T04:37:07.846Z,9.10
2023-05-17T04:39:37.838Z,9.10
2023-05-17T04:42:06.004Z,9.10
2023-05-17T04:44:38.429Z,9.20
2023-05-17T04:47:06.791Z,9.20
2023-05-17T04:49:36.378Z,9.20
2023-05-17T04:52:06.163Z,9.30
2023-05-17T04:54:35.604Z,9.30
2023-05-17T04:57:03.722Z,9.30
2023-05-17T04:59:58.263Z,9.30
2023-05-17T05:02:27.300Z,9.40
2023-05-17T05:04:56.694Z,9.40
2023-05-17T05:07:24.675Z,9.40
2023-05-17T05:09:52.874Z,9.50
2023-05-17T05:12:22.966Z,9.50
2023-05-17T05:14:51.173Z,9.60
2023-05-17T05:17:19.484Z,9.60
2023-05-17T05:19:47.932Z,9.70
2023-05-17T05:22:17.479Z,9.70
2023-05-17T05:24:45.966Z,9.70
2023-05-17T05:27:14.679Z,9.80
2023-05-17T05:29:43.111Z,9.90
2023-05-17T05:32:12.703Z,9.90
2023-05-17T05:34:46.031Z,10.00
2023-05-17T05:37:17.190Z,10.00
2023-05-17T05:39:48.304Z,10.10
2023-05-17T05:42:16.357Z,10.20
2023-05-17T05:44:45.020Z,10.30
2023-05-17T05:47:13.272Z,10.30
2023-05-17T05:49:41.178Z,10.50
2023-05-17T05:52:09.845Z,10.50
2023-05-17T05:54:38.666Z,10.60
2023-05-17T05:57:08.099Z,10.70
2023-05-17T05:59:36.636Z,10.70
2023-05-17T06:02:05.698Z,10.80
2023-05-17T06:04:44.617Z,10.80
2023-05-17T06:07:14.047Z,10.90
2023-05-17T06:09:42.601Z,10.90
2023-05-17T06:12:11.970Z,11.00
2023-05-17T06:14:39.896Z,11.10
2023-05-17T06:17:07.880Z,11.20
2023-05-17T06:19:35.992Z,11.30
2023-05-17T06:22:05.084Z,11.40
2023-05-17T06:24:33.268Z,11.50
2023-05-17T06:27:01.643Z,11.50
2023-05-17T06:29:30.942Z,11.60
2023-05-17T06:31:59.856Z,11.70
2023-05-17T06:34:28.192Z,11.80
2023-05-17T06:36:56.359Z,11.90
2023-05-17T06:39:24.492Z,12.00
2023-05-17T06:41:52.517Z,12.20
2023-05-17T06:44:20.442Z,12.30
2023-05-17T06:46:49.789Z,12.40
2023-05-17T06:49:17.725Z,12.40
2023-05-17T06:51:45.729Z,12.50
2023-05-17T06:54:13.661Z,12.50
2023-05-17T06:56:41.710Z,12.50
2023-05-17T06:59:09.642Z,12.50
2023-05-17T07:01:37.788Z,12.60
2023-05-17T07:04:07.266Z,12.60
2023-05-17T07:06:35.392Z,12.60
2023-05-17T07:09:03.254Z,12.70
2023-05-17T07:11:31.303Z,12.70
2023-05-17T07:13:59.155Z,12.70
2023-05-17T07:16:27.356Z,12.80
2023-05-17T07:18:55.905Z,12.80
2023-05-17T07:21:25.690Z,12.80
2023-05-17T07:23:53.597Z,12.90
2023-05-17T07:26:21.879Z,12.90
2023-05-17T07:28:50.163Z,13.00
2023-05-17T07:31:18.258Z,13.00
2023-05-17T07:33:46.503Z,13.10
2023-05-17T07:36:14.590Z,13.20
2023-05-17T07:38:45.985Z,13.30
2023-05-17T07:41:16.867Z,13.40
2023-05-17T07:43:45.011Z,13.50
2023-05-17T07:46:12.956Z,13.60
2023-05-17T07:48:41.410Z,13.70
2023-05-17T07:51:09.384Z,13.80
2023-05-17T07:53:37.658Z,13.90
2023-05-17T07:56:07.318Z,14.10
2023-05-17T07:58:36.265Z,14.20
2023-05-17T08:01:04.530Z,14.30
2023-05-17T08:03:35.267Z,14.50
2023-05-17T08:06:03.550Z,14.60
2023-05-17T08:08:31.830Z,14.70
2023-05-17T08:10:59.838Z,14.80
2023-05-17T08:13:29.368Z,14.90
2023-05-17T08:16:05.300Z,15.00
2023-05-17T08:18:40.798Z,15.10
2023-05-17T08:21:08.883Z,15.20
2023-05-17T08:23:37.120Z,15.20
2023-05-17T08:26:05.075Z,15.30
2023-05-17T08:28:34.747Z,15.30
2023-05-17T08:31:04.078Z,15.40
2023-05-17T08:33:33.126Z,15.50
2023-05-17T08:36:02.941Z,15.60
2023-05-17T08:38:30.925Z,15.70
2023-05-17T08:40:59.806Z,15.80
2023-05-17T08:43:28.739Z,16.00
2023-05-17T08:45:59.145Z,16.20
2023-05-17T08:48:27.802Z,16.50
2023-05-17T08:50:58.004Z,16.70
2023-05-17T08:53:26.507Z,17.00
2023-05-17T08:55:58.934Z,17.30
2023-05-17T08:58:29.324Z,17.70
2023-05-17T09:01:00.150Z,18.20
2023-05-17T09:03:30.305Z,18.80
2023-05-17T09:06:00.000Z,19.30
2023-05-17T09:08:30.061Z,19.90
2023-05-17T09:10:59.265Z,20.50
2023-05-17T09:13:27.578Z,21.00
2023-05-17T09:15:56.248Z,21.40
2023-05-17T09:18:33.244Z,21.60
2023-05-17T09:21:04.918Z,21.70
2023-05-17T09:23:34.246Z,21.80
2023-05-17T09:26:06.532Z,21.90
2023-05-17T09:28:47.221Z,22.30
2023-05-17T09:31:18.456Z,22.90
2023-05-17T09:33:49.062Z,23.60
2023-05-17T09:36:19.130Z,24.40
2023-05-17T09:38:54.759Z,25.20
2023-05-17T09:41:23.358Z,25.90
2023-05-17T09:43:51.431Z,26.60
2023-05-17T09:46:20.957Z,27.20
2023-05-17T09:48:55.184Z,27.80
2023-05-17T09:51:33.526Z,28.30
2023-05-17T09:54:01.919Z,28.90
2023-05-17T09:56:31.262Z,29.50
2023-05-17T09:59:02.001Z,30.10
2023-05-17T10:01:31.569Z,30.70
2023-05-17T10:04:03.847Z,31.30
2023-05-17T10:06:45.378Z,32.00
2023-05-17T10:09:15.671Z,32.60
2023-05-17T10:11:47.772Z,33.20
2023-05-17T10:14:22.545Z,33.60
2023-05-17T10:16:51.992Z,33.90
2023-05-17T10:19:22.608Z,34.20
2023-05-17T10:21:52.544Z,34.60
2023-05-17T10:24:21.850Z,34.80
2023-05-17T10:26:51.883Z,34.80
2023-05-17T10:29:21.509Z,34.60
2023-05-17T10:31:51.863Z,34.50
2023-05-17T10:34:22.160Z,34.50
2023-05-17T10:36:50.877Z,34.80
2023-05-17T10:39:19.135Z,35.10
2023-05-17T10:41:48.871Z,35.40
2023-05-17T10:44:18.603Z,35.70
2023-05-17T10:46:53.523Z,35.70
2023-05-17T10:49:26.960Z,35.70
2023-05-17T10:51:55.739Z,35.60
2023-05-17T10:54:35.828Z,35.60
2023-05-17T10:57:08.813Z,35.70
2023-05-17T10:59:37.482Z,35.60
2023-05-17T11:02:15.496Z,35.30
2023-05-17T11:04:45.654Z,35.00
2023-05-17T11:07:26.962Z,34.60
2023-05-17T11:09:57.112Z,34.40
2023-05-17T11:12:34.928Z,34.60
2023-05-17T11:15:08.879Z,34.60
2023-05-17T11:17:50.830Z,34.80
2023-05-17T11:20:35.532Z,35.00
2023-05-17T11:23:05.787Z,35.10
2023-05-17T11:25:36.131Z,35.00
2023-05-17T11:28:08.936Z,35.10
2023-05-17T11:30:42.113Z,35.10
2023-05-17T11:33:20.942Z,35.20
2023-05-17T11:35:57.848Z,35.20
2023-05-17T11:38:31.652Z,35.40
2023-05-17T11:41:01.190Z,35.50
2023-05-17T11:43:31.042Z,35.60
2023-05-17T11:46:04.224Z,35.70
2023-05-17T11:48:34.621Z,35.80
2023-05-17T11:51:04.879Z,35.90
2023-05-17T11:53:33.130Z,36.00
2023-05-17T11:56:04.135Z,36.10
2023-05-17T11:58:33.263Z,36.10
2023-05-17T12:01:04.382Z,36.10
2023-05-17T12:03:34.845Z,36.10
2023-05-17T12:06:05.524Z,36.00
2023-05-17T12:08:35.377Z,35.90
2023-05-17T12:11:04.341Z,35.80
2023-05-17T12:13:34.079Z,35.70
2023-05-17T12:16:05.871Z,35.60
2023-05-17T12:18:39.627Z,35.40
2023-05-17T12:21:11.952Z,35.30
2023-05-17T12:23:42.797Z,35.30
2023-05-17T12:26:12.278Z,35.20
2023-05-17T12:28:41.723Z,35.20
2023-05-17T12:31:12.767Z,35.20
2023-05-17T12:33:43.785Z,35.20
2023-05-17T12:36:13.649Z,35.20
2023-05-17T12:38:43.429Z,35.20
2023-05-17T12:41:22.783Z,35.10
2023-05-17T12:43:54.936Z,35.00
2023-05-17T12:46:29.815Z,34.80
2023-05-17T12:49:06.559Z,34.60
2023-05-17T12:51:43.174Z,34.40
2023-05-17T12:54:11.899Z,34.30
2023-05-17T12:56:42.898Z,34.20
2023-05-17T12:59:13.505Z,34.00
2023-05-17T13:01:44.112Z,33.90
2023-05-17T13:04:14.281Z,33.90
2023-05-17T13:06:47.471Z,33.80
2023-05-17T13:09:16.398Z,33.60
2023-05-17T13:11:44.353Z,33.50
2023-05-17T13:14:13.441Z,33.50
2023-05-17T13:16:42.893Z,33.20
2023-05-17T13:19:15.446Z,33.10
2023-05-17T13:21:43.803Z,32.90
2023-05-17T13:24:11.875Z,32.80
2023-05-17T13:26:39.957Z,32.70
2023-05-17T13:29:07.859Z,32.70
2023-05-17T13:31:35.907Z,32.70
2023-05-17T13:34:04.082Z,32.70
2023-05-17T13:36:33.557Z,32.60
2023-05-17T13:39:02.230Z,32.50
2023-05-17T13:41:31.026Z,32.50
2023-05-17T13:43:58.904Z,32.50
2023-05-17T13:46:27.179Z,32.40
2023-05-17T13:48:55.222Z,32.40
2023-05-17T13:51:23.729Z,32.30
2023-05-17T13:53:53.197Z,32.30
2023-05-17T13:56:22.427Z,32.30
2023-05-17T13:58:50.537Z,32.20
2023-05-17T14:01:18.960Z,32.10
2023-05-17T14:03:47.064Z,32.00
2023-05-17T14:06:15.004Z,32.00
2023-05-17T14:08:46.775Z,31.80
2023-05-17T14:11:16.106Z,31.60
2023-05-17T14:13:44.609Z,31.50
2023-05-17T14:16:12.618Z,31.40
2023-05-17T14:18:40.650Z,31.40
2023-05-17T14:21:09.056Z,31.30
2023-05-17T14:23:37.836Z,31.20
2023-05-17T14:26:07.508Z,31.10
2023-05-17T14:28:39.061Z,31.00
2023-05-17T14:31:08.254Z,31.00
2023-05-17T14:33:36.512Z,30.90
2023-05-17T14:36:04.960Z,30.80
2023-05-17T14:38:33.067Z,30.80
2023-05-17T14:41:02.215Z,30.80
2023-05-17T14:43:30.780Z,30.80
2023-05-17T14:46:00.118Z,30.80
2023-05-17T14:48:28.409Z,30.80
2023-05-17T14:50:56.415Z,30.80
2023-05-17T14:53:29.104Z,30.60
2023-05-17T14:55:57.818Z,30.50
2023-05-17T14:58:26.016Z,30.20
2023-05-17T15:01:05.785Z,30.10
2023-05-17T15:03:36.702Z,30.00
2023-05-17T15:06:08.193Z,29.90
2023-05-17T15:08:39.352Z,29.70
2023-05-17T15:11:07.558Z,29.60
2023-05-17T15:13:35.586Z,29.50
2023-05-17T15:16:04.338Z,29.50
2023-05-17T15:18:33.175Z,29.50
2023-05-17T15:21:02.813Z,29.40
2023-05-17T15:23:30.795Z,29.40
2023-05-17T15:25:58.957Z,29.30
2023-05-17T15:28:27.562Z,29.20
2023-05-17T15:31:02.011Z,29.20
2023-05-17T15:33:31.009Z,29.10
2023-05-17T15:35:59.027Z,29.00
2023-05-17T15:38:28.342Z,28.90
2023-05-17T15:41:03.861Z,28.80
2023-05-17T15:43:32.594Z,28.70
2023-05-17T15:46:00.815Z,28.60
2023-05-17T15:48:29.933Z,28.50
2023-05-17T15:50:58.240Z,28.30
2023-05-17T15:53:28.597Z,28.30
2023-05-17T15:55:56.829Z,28.10
2023-05-17T15:58:27.775Z,28.00
2023-05-17T16:00:56.124Z,27.90
2023-05-17T16:03:24.119Z,27.80
2023-05-17T16:05:52.357Z,27.60
2023-05-17T16:08:20.500Z,27.50
2023-05-17T16:10:49.893Z,27.40
2023-05-17T16:13:17.791Z,27.30
2023-05-17T16:15:45.928Z,27.10
2023-05-17T16:18:15.259Z,27.00
2023-05-17T16:20:43.581Z,26.90
2023-05-17T16:23:11.773Z,26.80
2023-05-17T16:25:40.020Z,26.60
2023-05-17T16:28:09.387Z,26.50
2023-05-17T16:30:37.346Z,26.40
2023-05-17T16:33:08.186Z,26.30
2023-05-17T16:35:36.523Z,26.10
2023-05-17T16:38:04.675Z,26.00
2023-05-17T16:40:33.628Z,25.90
2023-05-17T16:43:02.104Z,25.90
2023-05-17T16:45:31.516Z,25.70
2023-05-17T16:47:59.787Z,25.60
2023-05-17T16:50:28.113Z,25.50
2023-05-17T16:52:56.265Z,25.40
2023-05-17T16:55:24.460Z,25.30
2023-05-17T16:57:52.667Z,25.20
2023-05-17T17:00:21.358Z,25.10
2023-05-17T17:02:51.228Z,25.00
2023-05-17T17:05:20.290Z,24.80
2023-05-17T17:07:48.192Z,24.70
2023-05-17T17:10:16.260Z,24.60
2023-05-17T17:12:44.428Z,24.50
2023-05-17T17:15:12.685Z,24.40
2023-05-17T17:17:41.096Z,24.30
2023-05-17T17:20:12.135Z,24.10
2023-05-17T17:22:40.290Z,24.10
2023-05-17T17:25:09.021Z,23.90
2023-05-17T17:27:37.317Z,23.80
2023-05-17T17:30:06.298Z,23.60
2023-05-17T17:32:34.736Z,23.50
2023-05-17T17:35:02.693Z,23.40
2023-05-17T17:37:32.180Z,23.30
2023-05-17T17:40:00.202Z,23.10
2023-05-17T17:42:30.780Z,23.00
2023-05-17T17:45:00.059Z,22.80
2023-05-17T17:47:28.254Z,22.70
2023-05-17T17:49:56.169Z,22.60
2023-05-17T17:52:24.102Z,22.50
2023-05-17T17:54:56.364Z,22.30
2023-05-17T17:57:24.380Z,22.20
2023-05-17T17:59:53.391Z,22.10
2023-05-17T18:02:21.620Z,22.00
2023-05-17T18:04:49.763Z,21.90
2023-05-17T18:07:18.542Z,21.80
2023-05-17T18:09:46.637Z,21.70
2023-05-17T18:12:15.938Z,21.60
2023-05-17T18:14:43.978Z,21.40
2023-05-17T18:17:11.892Z,21.30
2023-05-17T18:19:39.881Z,21.20
2023-05-17T18:22:07.816Z,21.00
2023-05-17T18:24:35.961Z,20.90
2023-05-17T18:27:03.903Z,20.80
2023-05-17T18:29:33.335Z,20.70
2023-05-17T18:32:01.946Z,20.50
2023-05-17T18:34:30.019Z,20.40
2023-05-17T18:36:58.358Z,20.30
2023-05-17T18:39:26.948Z,20.10
2023-05-17T18:41:55.027Z,20.00
2023-05-17T18:44:22.974Z,19.90
2023-05-17T18:46:53.818Z,19.80
2023-05-17T18:49:22.282Z,19.70
2023-05-17T18:51:50.365Z,19.50
2023-05-17T18:54:18.542Z,19.40
2023-05-17T18:56:46.497Z,19.30
2023-05-17T18:59:14.475Z,19.10
2023-05-17T19:01:43.688Z,19.00
2023-05-17T19:04:13.200Z,18.90
2023-05-17T19:06:42.175Z,18.80
2023-05-17T19:09:10.318Z,18.60
2023-05-17T19:11:38.324Z,18.50
2023-05-17T19:14:06.928Z,18.40
2023-05-17T19:16:34.882Z,18.30
2023-05-17T19:19:03.328Z,18.10
2023-05-17T19:21:32.612Z,18.00
2023-05-17T19:24:01.427Z,17.90
2023-05-17T19:26:29.389Z,17.80
2023-05-17T19:28:57.368Z,17.70
2023-05-17T19:31:25.427Z,17.60
2023-05-17T19:33:53.367Z,17.50
2023-05-17T19:36:21.533Z,17.40
2023-05-17T19:38:52.094Z,17.30
2023-05-17T19:41:20.479Z,17.20
2023-05-17T19:43:48.366Z,17.10
2023-05-17T19:46:16.569Z,17.00
2023-05-17T19:48:44.513Z,16.90
2023-05-17T19:51:12.734Z,16.80
2023-05-17T19:53:51.534Z,16.70
2023-05-17T19:56:23.914Z,16.70
2023-05-17T19:58:52.778Z,16.60
2023-05-17T20:01:21.625Z,16.50
2023-05-17T20:03:49.809Z,16.40
2023-05-17T20:06:18.156Z,16.30
2023-05-17T20:08:46.381Z,16.20
2023-05-17T20:11:14.772Z,16.20
2023-05-17T20:13:44.116Z,16.10
2023-05-17T20:16:13.642Z,16.00
2023-05-17T20:18:42.961Z,15.90
2023-05-17T20:21:12.689Z,15.90
2023-05-17T20:23:40.930Z,15.80
2023-05-17T20:26:16.018Z,15.70
2023-05-17T20:28:45.411Z,15.70
2023-05-17T20:31:14.316Z,15.60
2023-05-17T20:33:44.074Z,15.50
2023-05-17T20:36:14.139Z,15.50
2023-05-17T20:38:42.293Z,15.40
2023-05-17T20:41:11.009Z,15.30
2023-05-17T20:43:39.117Z,15.20
2023-05-17T20:46:09.841Z,15.10
2023-05-17T20:48:38.979Z,15.00
2023-05-17T20:51:06.965Z,14.90
2023-05-17T20:53:35.023Z,14.90
2023-05-17T20:56:03.528Z,14.80
2023-05-17T20:58:31.834Z,14.70
2023-05-17T21:01:00.929Z,14.60
2023-05-17T21:03:34.146Z,14.50
2023-05-17T21:06:05.030Z,14.40
2023-05-17T21:08:34.071Z,14.40
2023-05-17T21:11:02.027Z,14.30
2023-05-17T21:13:30.137Z,14.20
2023-05-17T21:15:58.298Z,14.10
2023-05-17T21:18:26.742Z,14.00
2023-05-17T21:20:56.275Z,13.90
2023-05-17T21:23:24.481Z,13.80
2023-05-17T21:25:52.428Z,13.70
2023-05-17T21:28:20.678Z,13.60
2023-05-17T21:30:48.647Z,13.60
2023-05-17T21:33:16.822Z,13.40
2023-05-17T21:35:44.795Z,13.30
2023-05-17T21:38:14.275Z,13.30
2023-05-17T21:40:42.458Z,13.20
2023-05-17T21:43:11.340Z,13.10
2023-05-17T21:45:39.725Z,13.00
2023-05-17T21:48:07.870Z,13.00
2023-05-17T21:50:35.910Z,12.90
2023-05-17T21:53:04.102Z,12.80
2023-05-17T21:55:36.834Z,12.80
2023-05-17T21:58:16.357Z,12.70
2023-05-17T22:00:44.401Z,12.60
2023-05-17T22:03:12.723Z,12.60
2023-05-17T22:05:40.869Z,12.50
2023-05-17T22:08:09.132Z,12.40
2023-05-17T22:10:40.198Z,12.40
2023-05-17T22:13:12.525Z,12.30
2023-05-17T22:15:41.305Z,12.30
2023-05-17T22:18:12.412Z,12.20
2023-05-17T22:20:40.820Z,12.20
2023-05-17T22:23:08.915Z,12.10
2023-05-17T22:25:38.329Z,12.10
2023-05-17T22:28:06.427Z,12.00
2023-05-17T22:30:34.656Z,11.90
2023-05-17T22:33:02.930Z,11.90
2023-05-17T22:35:31.154Z,11.80
2023-05-17T22:37:59.091Z,11.70
2023-05-17T22:40:27.392Z,11.70
2023-05-17T22:42:58.037Z,11.70
2023-05-17T22:45:32.920Z,11.60
2023-05-17T22:48:02.729Z,11.50
2023-05-17T22:50:34.688Z,11.50
2023-05-17T22:53:02.557Z,11.40
2023-05-17T22:55:31.118Z,11.30
2023-05-17T22:58:00.676Z,11.30
2023-05-17T23:00:29.051Z,11.20
2023-05-17T23:02:57.027Z,11.20
2023-05-17T23:05:25.188Z,11.10
2023-05-17T23:07:53.428Z,11.10
2023-05-17T23:10:21.730Z,11.00
2023-05-17T23:12:52.062Z,10.90
2023-05-17T23:15:21.995Z,10.90
2023-05-17T23:17:50.881Z,10.80
2023-05-17T23:20:20.126Z,10.80
2023-05-17T23:22:48.433Z,10.70
2023-05-17T23:25:16.800Z,10.70
2023-05-17T23:27:44.720Z,10.60
2023-05-17T23:30:13.343Z,10.60
2023-05-17T23:32:46.997Z,10.50
2023-05-17T23:35:15.286Z,10.50
2023-05-17T23:37:43.293Z,10.40
2023-05-17T23:40:12.812Z,10.40
2023-05-17T23:42:41.461Z,10.30
2023-05-17T23:45:10.464Z,10.30
2023-05-17T23:47:40.760Z,10.20
2023-05-17T23:50:12.124Z,10.10
2023-05-17T23:52:40.252Z,10.10
2023-05-17T23:55:09.104Z,10.10
2023-05-17T23:57:37.802Z,10.00
